Latest Weather Observations for Cummins Airport

IDS60801

Issued at 2:35 pm CDT Thursday 27 November 2014 (issued every 30 minutes, with the page automatically refreshed every 10 minutes)

About weather observations | Map of weather stations | Latest weather observations for SA | Other Formats
Station Details ID: 018217 Name: CUMMINS AERO Lat: -34.25 Lon: 135.71 Height: 60.11 m
Data from the previous 72 hours. | See also: Recent months at Cummins Airport
Date/Time
CDT
Temp
°C
App
Temp
°C
Dew
Point
Rel
Hum
%
Delta-T
°C
Wind Press
QNH
hPa
Press
MSL
hPa
Rain
since 9 am
mm
Dir
 
Spd
km/h
Gust
km/h
Spd
kts
Gust
kts
27/02:30pm 24.6 20.1 10.1 40 8.0 ESE 24 33 13 18 1021.0 1020.9 0.0
27/02:00pm 24.8 20.6 11.0 42 7.7 SE 24 35 13 19 1021.1 1021.0 0.0
27/01:30pm 25.7 21.2 11.5 41 8.1 SE 26 37 14 20 1021.4 1021.3 0.0
27/01:00pm 24.3 20.2 11.6 45 7.2 ESE 24 33 13 18 1021.7 1021.6 0.0
27/12:30pm 24.2 20.0 11.2 44 7.3 ESE 24 33 13 18 1021.8 1021.7 0.0
27/12:00pm 23.5 19.2 11.9 48 6.6 ESE 26 35 14 19 1022.1 1022.0 0.0
27/11:30am 23.0 19.2 12.3 51 6.1 E 24 37 13 20 1022.2 1022.1 0.0
27/11:00am 22.0 17.4 12.3 54 5.5 ESE 28 37 15 20 1022.2 1022.1 0.0
27/10:30am 21.7 17.2 12.5 56 5.2 ESE 28 39 15 21 1022.4 1022.3 0.0
27/10:00am 21.3 17.1 12.4 57 5.0 ESE 26 35 14 19 1022.8 1022.7 0.0
27/09:30am 20.4 16.7 12.6 61 4.4 ESE 24 32 13 17 1023.0 1022.9 0.0
27/09:00am 19.4 15.6 12.4 64 3.9 E 24 37 13 20 1023.3 1023.2 -
27/08:30am 17.9 13.7 12.4 70 3.0 E 26 37 14 20 1023.3 1023.2 -
27/08:00am 17.8 13.2 12.3 70 3.1 ESE 28 37 15 20 1023.2 1023.1 -
27/07:30am 17.5 13.2 12.2 71 2.9 ESE 26 32 14 17 1022.8 1022.7 -
27/07:00am 16.8 12.6 12.3 75 2.5 ESE 26 32 14 17 1022.5 1022.4 -
27/06:30am 16.3 12.4 12.1 76 2.3 ESE 24 32 13 17 1022.3 1022.2 -
27/06:00am 16.0 12.1 12.0 77 2.2 ESE 24 35 13 19 1022.2 1022.1 -
27/05:30am 15.9 11.9 11.7 76 2.3 ESE 24 32 13 17 1022.1 1022.0 -
27/05:00am 15.9 12.3 11.9 77 2.2 ESE 22 32 12 17 1022.0 1021.9 -
27/04:30am 15.5 12.2 11.5 77 2.1 ESE 20 28 11 15 1021.8 1021.7 -
27/04:00am 15.5 11.4 11.3 76 2.3 ESE 24 30 13 16 1021.7 1021.6 -
27/03:30am 15.7 12.0 11.5 76 2.3 ESE 22 30 12 16 1021.7 1021.6 -
27/03:00am 15.7 12.6 11.5 76 2.3 ESE 19 26 10 14 1021.8 1021.7 0.0
27/02:30am 15.8 11.8 11.8 77 2.2 SE 24 33 13 18 1021.9 1021.8 -
27/02:00am 15.6 11.1 11.4 76 2.3 ESE 26 33 14 18 1022.1 1022.0 -
27/01:30am 15.5 11.4 11.3 76 2.2 ESE 24 33 13 18 1022.5 1022.4 -
27/01:00am 15.3 12.0 11.5 78 2.0 ESE 20 30 11 16 1022.9 1022.8 -
27/12:30am 15.0 12.3 11.8 81 1.7 ESE 17 24 9 13 1023.3 1023.2 -
27/12:00am 13.9 12.0 11.9 88 1.1 SSE 13 17 7 9 1023.4 1023.3 -
 
Date/Time
CDT
Temp
°C
App
Temp
°C
Dew
Point
Rel
Hum
%
Delta-T
°C
Wind Press
QNH
hPa
Press
MSL
hPa
Rain
since 9 am
mm
Dir
 
Spd
km/h
Gust
km/h
Spd
kts
Gust
kts
26/11:30pm 14.0 11.8 12.2 89 1.0 SSE 15 17 8 9 1023.5 1023.4 -
26/11:00pm 14.2 11.9 11.9 86 1.2 SSE 15 17 8 9 1023.8 1023.7 -
26/10:30pm 14.5 11.8 11.8 84 1.5 SSE 17 20 9 11 1023.7 1023.6 -
26/10:00pm 15.0 11.4 11.8 81 1.7 SSE 22 30 12 16 1023.4 1023.3 -
26/09:30pm 15.2 11.1 11.4 78 2.0 SSE 24 30 13 16 1023.1 1023.0 -
26/09:00pm 15.6 11.5 11.4 76 2.3 SSE 24 32 13 17 1023.0 1022.9 0.0
26/08:30pm 16.0 11.7 10.7 71 2.8 SE 24 35 13 19 1022.8 1022.7 -
26/08:00pm 16.9 13.3 10.5 66 3.4 SE 20 30 11 16 1022.8 1022.7 -
26/07:30pm 17.7 12.9 10.3 62 3.9 SE 26 37 14 20 1022.8 1022.7 -
26/07:00pm 18.3 13.2 9.1 55 4.8 SSE 26 33 14 18 1022.5 1022.4 -
26/06:30pm 18.7 13.3 9.5 55 4.8 SSE 28 37 15 20 1022.4 1022.3 -
26/06:00pm 19.8 14.8 9.7 52 5.4 SSE 26 33 14 18 1022.2 1022.1 -
26/05:30pm 19.9 15.1 8.9 49 5.8 SSE 24 33 13 18 1022.1 1022.0 -
26/05:00pm 20.5 15.1 8.2 45 6.4 SE 26 35 14 19 1021.9 1021.8 -
26/04:30pm 21.3 16.6 7.9 42 7.0 SE 22 33 12 18 1022.0 1021.9 -
26/04:00pm 21.5 16.7 7.3 40 7.3 SSE 22 32 12 17 1022.1 1022.0 -
26/03:30pm 21.3 16.1 7.2 40 7.2 SSE 24 33 13 18 1022.5 1022.4 -
26/03:00pm 21.6 16.4 7.4 40 7.3 SE 24 33 13 18 1022.4 1022.3 -
26/02:30pm 20.7 15.8 7.0 41 7.0 SE 22 32 12 17 1022.6 1022.5 -
26/02:00pm 21.4 18.4 7.6 41 7.2 SSE 13 24 7 13 1023.0 1022.9 -
26/01:30pm 20.6 16.3 7.9 44 6.6 SE 20 30 11 16 1023.3 1023.2 -
26/01:00pm 21.2 16.1 7.8 42 7.0 E 24 28 13 15 1023.6 1023.5 0.0
26/12:30pm 20.6 16.2 7.2 42 6.8 SE 20 32 11 17 1023.6 1023.5 0.0
26/12:00pm 20.8 14.8 7.1 41 7.0 SE 28 39 15 21 1024.0 1023.9 0.0
26/11:30am 20.1 15.7 7.5 44 6.4 ESE 20 32 11 17 1023.8 1023.7 0.0
26/11:00am 20.3 16.2 8.0 45 6.4 E 19 24 10 13 1023.8 1023.7 0.0
26/10:30am 19.9 16.3 8.3 47 6.0 ESE 17 39 9 21 1024.1 1024.0 0.0
26/10:00am 19.3 15.9 7.7 47 5.9 ESE 15 22 8 12 1024.2 1024.1 0.0
26/09:30am 18.1 14.3 7.5 50 5.3 ESE 17 24 9 13 1024.5 1024.4 0.0
26/09:00am 16.9 14.1 8.6 58 4.2 ESE 13 20 7 11 1024.4 1024.3 0.0
26/08:30am 15.4 13.2 9.3 67 3.1 S 11 13 6 7 1024.3 1024.2 0.0
26/08:00am 14.1 12.2 9.1 72 2.5 SSW 9 11 5 6 1024.2 1024.1 0.0
26/07:30am 11.8 9.5 9.0 83 1.4 SSW 11 13 6 7 1023.7 1023.6 0.0
26/07:00am 9.6 6.7 8.0 90 0.8 SSW 13 13 7 7 1023.2 1023.1 0.0
26/06:30am 8.2 5.8 7.0 92 0.6 S 9 11 5 6 1022.7 1022.6 0.0
26/06:00am 7.5 4.9 6.0 90 0.7 SSW 9 11 5 6 1022.4 1022.3 0.0
26/05:30am 8.1 5.2 6.6 90 0.7 S 11 15 6 8 1022.0 1021.9 0.0
26/05:00am 7.3 4.6 5.6 89 0.8 SSW 9 11 5 6 1022.0 1021.9 0.0
26/04:30am 6.8 5.7 5.1 89 0.7 CALM 0 0 0 0 1022.0 1021.9 0.0
26/04:00am 7.9 6.6 6.2 89 0.8 ESE 2 9 1 5 1022.0 1021.9 0.0
26/03:30am 7.9 4.6 6.2 89 0.8 S 13 15 7 8 1021.9 1021.8 0.0
26/03:00am 7.6 4.1 5.6 87 0.9 S 13 13 7 7 1022.0 1021.9 0.0
26/02:30am 8.8 5.5 6.6 86 1.0 S 13 15 7 8 1022.2 1022.1 0.0
26/02:00am 9.1 5.5 6.9 86 1.0 S 15 17 8 9 1022.5 1022.4 0.0
26/01:30am 9.0 5.7 6.6 85 1.1 S 13 15 7 8 1023.0 1022.9 0.0
26/01:00am 8.6 5.6 6.2 85 1.1 S 11 15 6 8 1023.3 1023.2 0.0
26/12:30am 9.6 7.1 6.5 81 1.4 S 9 11 5 6 1023.6 1023.5 0.0
26/12:00am 9.5 6.5 6.2 80 1.5 S 11 13 6 7 1023.6 1023.5 0.0
 
Date/Time
CDT
Temp
°C
App
Temp
°C
Dew
Point
Rel
Hum
%
Delta-T
°C
Wind Press
QNH
hPa
Press
MSL
hPa
Rain
since 9 am
mm
Dir
 
Spd
km/h
Gust
km/h
Spd
kts
Gust
kts
25/11:30pm 10.4 7.5 6.7 78 1.7 S 11 13 6 7 1023.8 1023.7 0.0
25/11:00pm 11.3 8.1 7.0 75 2.1 S 13 15 7 8 1023.9 1023.8 0.0
25/10:30pm 12.3 9.6 7.4 72 2.4 S 11 13 6 7 1024.0 1023.9 0.0
25/10:00pm 12.8 10.0 7.0 68 2.8 S 11 15 6 8 1023.9 1023.8 0.0
25/09:30pm 14.2 10.7 7.3 63 3.4 SSE 15 19 8 10 1023.7 1023.6 0.0
25/09:00pm 15.0 11.1 7.1 59 3.9 SSE 17 22 9 12 1023.4 1023.3 0.0
25/08:30pm 16.2 11.4 7.4 56 4.4 S 22 28 12 15 1023.3 1023.2 0.0
25/08:00pm 16.6 12.1 8.6 59 4.1 SE 22 32 12 17 1023.2 1023.1 0.0
25/07:30pm 17.1 12.3 8.8 58 4.3 SE 24 32 13 17 1022.9 1022.8 0.0
25/07:00pm 18.1 12.5 8.7 54 4.9 SE 28 33 15 18 1022.3 1022.2 0.0
25/06:30pm 18.6 13.5 7.7 49 5.5 SE 24 33 13 18 1021.9 1021.8 0.0
25/06:00pm 19.2 14.0 7.3 46 6.0 SE 24 32 13 17 1021.6 1021.5 0.0
25/05:30pm 20.0 15.1 6.7 42 6.7 SSE 22 30 12 16 1021.6 1021.5 0.0
25/05:00pm 20.8 15.4 6.4 39 7.3 S 24 33 13 18 1021.4 1021.3 0.0
25/04:30pm 21.5 16.9 6.6 38 7.6 SSW 20 39 11 21 1021.3 1021.2 0.0
25/04:00pm 21.7 16.6 6.0 36 7.9 SSW 22 43 12 23 1021.7 1021.6 0.0
25/03:30pm 22.3 18.5 5.7 34 8.3 SSW 15 20 8 11 1021.9 1021.8 0.0
25/03:00pm 22.0 17.9 4.6 32 8.5 W 15 22 8 12 1022.2 1022.1 0.0
25/02:30pm 21.5 18.1 4.1 32 8.4 SW 11 19 6 10 1022.4 1022.3 0.0
25/02:00pm 21.9 17.0 4.0 31 8.7 SW 19 26 10 14 1022.6 1022.5 0.0
25/01:30pm 21.6 17.2 4.7 33 8.3 W 17 22 9 12 1022.6 1022.5 0.0
25/01:00pm 21.2 16.1 4.3 33 8.2 WSW 20 26 11 14 1022.8 1022.7 0.0
25/12:30pm 20.3 16.1 3.9 34 7.8 W 15 22 8 12 1023.1 1023.0 0.0
25/12:00pm 20.2 15.8 4.7 36 7.5 W 17 26 9 14 1023.4 1023.3 0.0
25/11:30am 19.7 15.3 5.0 38 7.1 SSW 17 24 9 13 1023.5 1023.4 0.0
25/11:00am 18.7 15.1 4.8 40 6.7 W 13 19 7 10 1023.9 1023.8 0.0
25/10:30am 19.0 16.1 4.4 38 7.0 SE 9 17 5 9 1024.0 1023.9 0.0
25/10:00am 18.0 14.3 4.2 40 6.5 SSW 13 20 7 11 1024.3 1024.2 0.0
25/09:30am 17.2 13.6 4.9 44 5.9 S 13 19 7 10 1024.3 1024.2 0.0
25/09:00am 16.1 13.2 8.1 59 4.0 S 13 19 7 10 1024.1 1024.0 0.0
25/08:30am 14.8 13.0 8.1 64 3.3 S 7 9 4 5 1023.9 1023.8 0.0
25/08:00am 13.4 13.1 8.5 72 2.5 CALM 0 0 0 0 1023.6 1023.5 0.0
25/07:30am 11.2 10.8 8.1 81 1.5 CALM 0 0 0 0 1023.4 1023.3 0.0
25/07:00am 8.9 7.8 7.0 88 0.9 E 2 6 1 3 1023.2 1023.1 0.0
25/06:30am 6.8 4.7 5.6 92 0.5 ENE 6 7 3 4 1022.9 1022.8 0.0
25/06:00am 7.3 6.0 5.8 90 0.7 N 2 6 1 3 1022.5 1022.4 0.0
25/05:30am 7.7 5.5 6.2 90 0.7 NNE 7 7 4 4 1022.2 1022.1 0.0
25/05:00am 8.6 6.6 7.1 90 0.7 N 7 9 4 5 1021.9 1021.8 0.0
25/04:30am 8.7 6.9 7.0 89 0.8 NE 6 9 3 5 1021.7 1021.6 0.0
25/04:00am 7.8 5.2 6.3 90 0.7 NNE 9 11 5 6 1021.6 1021.5 0.0
25/03:30am 7.0 4.8 5.3 89 0.8 N 6 9 3 5 1021.6 1021.5 0.0
25/03:00am 7.5 4.9 6.0 90 0.7 N 9 11 5 6 1021.4 1021.3 0.0
25/02:30am 7.0 4.6 5.2 88 0.8 NE 7 9 4 5 1021.5 1021.4 0.0
25/02:00am 7.8 5.5 5.8 87 0.9 NE 7 9 4 5 1021.6 1021.5 0.0
25/01:30am 8.6 7.7 6.2 85 1.1 CALM 0 0 0 0 1021.6 1021.5 0.0
25/01:00am 9.1 8.3 6.5 84 1.2 CALM 0 0 0 0 1021.7 1021.6 0.0
25/12:30am 9.5 8.7 6.6 82 1.3 CALM 0 0 0 0 1021.7 1021.6 0.0
25/12:00am 9.0 7.7 5.9 81 1.4 W 2 6 1 3 1021.5 1021.4 0.0
 
Date/Time
CDT
Temp
°C
App
Temp
°C
Dew
Point
Rel
Hum
%
Delta-T
°C
Wind Press
QNH
hPa
Press
MSL
hPa
Rain
since 9 am
mm
Dir
 
Spd
km/h
Gust
km/h
Spd
kts
Gust
kts
24/11:30pm 10.3 8.8 6.6 78 1.7 S 4 7 2 4 1021.3 1021.2 0.0
24/11:00pm 9.6 8.7 6.0 78 1.7 CALM 0 4 0 2 1021.3 1021.2 0.0
24/10:30pm 11.1 8.6 6.6 74 2.1 SSW 9 13 5 7 1021.1 1021.0 0.0
24/10:00pm 12.5 10.6 7.4 71 2.5 WSW 7 11 4 6 1021.0 1020.9 0.0
24/09:30pm 12.5 9.4 7.4 71 2.5 SSW 13 15 7 8 1020.7 1020.6 0.0
24/09:00pm 14.0 10.2 7.5 65 3.2 SSW 17 20 9 11 1020.3 1020.2 0.0
24/08:30pm 14.8 10.5 7.1 60 3.8 SSW 19 26 10 14 1019.8 1019.7 0.0
24/08:00pm 15.8 10.5 6.8 55 4.4 SSW 24 33 13 18 1019.4 1019.3 0.0
24/07:30pm 16.6 10.0 6.1 50 5.1 SW 30 39 16 21 1019.0 1018.9 0.0
24/07:00pm 17.6 11.2 6.8 49 5.4 SW 30 39 16 21 1018.4 1018.3 0.0
24/06:30pm 18.1 11.0 5.3 43 6.2 SW 32 41 17 22 1018.2 1018.1 0.0
24/06:00pm 18.3 11.7 6.2 45 6.0 SW 30 43 16 23 1018.2 1018.1 0.0
24/05:30pm 19.1 12.7 6.9 45 6.1 SW 30 39 16 21 1017.9 1017.8 0.0
24/05:00pm 19.5 12.5 5.9 41 6.7 SW 32 41 17 22 1017.7 1017.6 0.0
24/04:36pm 20.0 13.8 6.0 40 7.0 SW 28 46 15 25 1017.4 1017.3 0.0
24/04:30pm 20.0 13.9 6.4 41 6.8 SW 28 41 15 22 1017.5 1017.4 0.0
24/04:08pm 20.4 14.0 5.2 37 7.5 WSW 28 46 15 25 1017.5 1017.4 0.0
24/04:00pm 20.3 12.9 3.9 34 7.9 WSW 32 46 17 25 1017.4 1017.3 0.0
24/03:30pm 20.0 12.1 4.5 36 7.5 WSW 35 56 19 30 1017.2 1017.1 0.0
24/03:00pm 20.9 13.6 4.5 34 8.0 SW 32 44 17 24 1017.1 1017.0 0.0

Other Formats:

Comma delimited format used in spreadsheet applications
http://www.bom.gov.au/fwo/IDS60801/IDS60801.95663.axf

JavaScript Object Notation format (JSON) in row-major order
http://www.bom.gov.au/fwo/IDS60801/IDS60801.95663.json